createdAt,value
2022-10-13T00:00:29.587Z,10.27
2022-10-13T00:03:02.592Z,13.40
2022-10-13T00:05:32.935Z,19.52
2022-10-13T00:08:09.606Z,12.57
2022-10-13T00:10:40.472Z,12.07
2022-10-13T00:13:16.909Z,10.77
2022-10-13T00:15:52.407Z,12.50
2022-10-13T00:18:19.308Z,12.13
2022-10-13T00:21:06.020Z,11.93
2022-10-13T00:23:34.714Z,19.08
2022-10-13T00:26:04.588Z,16.43
2022-10-13T00:28:31.508Z,11.70
2022-10-13T00:30:58.127Z,13.20
2022-10-13T00:33:25.111Z,18.48
2022-10-13T00:35:51.866Z,15.05
2022-10-13T00:38:19.736Z,14.13
2022-10-13T00:40:58.802Z,12.02
2022-10-13T00:43:47.036Z,14.35
2022-10-13T00:46:14.697Z,10.23
2022-10-13T00:48:51.471Z,13.55
2022-10-13T00:51:24.195Z,10.73
2022-10-13T00:53:52.850Z,18.85
2022-10-13T00:56:21.447Z,10.98
2022-10-13T00:58:49.019Z,14.77
2022-10-13T01:01:16.470Z,10.82
2022-10-13T01:03:49.046Z,11.87
2022-10-13T01:06:25.185Z,12.80
2022-10-13T01:08:51.756Z,13.10
2022-10-13T01:11:43.324Z,12.85
2022-10-13T01:14:27.984Z,10.90
2022-10-13T01:17:18.353Z,18.87
2022-10-13T01:20:10.896Z,10.73
2022-10-13T01:23:06.675Z,12.32
2022-10-13T01:26:03.947Z,16.80
2022-10-13T01:28:39.084Z,16.10
2022-10-13T01:31:33.933Z,10.23
2022-10-13T01:34:13.111Z,10.63
2022-10-13T01:37:01.515Z,15.38
2022-10-13T01:39:53.201Z,10.57
2022-10-13T01:42:25.923Z,12.90
2022-10-13T01:44:58.648Z,18.70
2022-10-13T01:47:26.524Z,12.40
2022-10-13T01:49:54.639Z,13.98
2022-10-13T01:52:25.375Z,16.27
2022-10-13T01:55:01.266Z,10.98
2022-10-13T01:57:43.408Z,16.67
2022-10-13T02:00:23.191Z,9.20
2022-10-13T02:03:17.995Z,10.55
2022-10-13T02:05:59.488Z,14.77
2022-10-13T02:08:37.648Z,10.32
2022-10-13T02:11:30.497Z,15.30
2022-10-13T02:14:11.819Z,12.77
2022-10-13T02:16:43.811Z,11.68
2022-10-13T02:19:15.779Z,10.55
2022-10-13T02:21:43.179Z,13.55
2022-10-13T02:24:10.288Z,12.67
2022-10-13T02:26:41.613Z,10.95
2022-10-13T02:29:16.212Z,14.80
2022-10-13T02:31:44.109Z,19.63
2022-10-13T02:34:14.722Z,11.23
2022-10-13T02:36:51.112Z,11.50
2022-10-13T02:39:17.865Z,11.60
2022-10-13T02:41:44.541Z,21.08
2022-10-13T02:44:11.088Z,13.98
2022-10-13T02:46:44.168Z,12.50
2022-10-13T02:49:20.102Z,13.57
2022-10-13T02:51:55.842Z,10.95
2022-10-13T02:54:24.823Z,11.60
2022-10-13T02:56:51.555Z,11.35
2022-10-13T02:59:18.244Z,15.65
2022-10-13T03:01:44.937Z,12.23
2022-10-13T03:04:17.771Z,11.20
2022-10-13T03:06:53.274Z,12.18
2022-10-13T03:09:25.484Z,11.95
2022-10-13T03:11:52.214Z,12.10
2022-10-13T03:14:18.932Z,19.93
2022-10-13T03:16:45.704Z,15.63
2022-10-13T03:19:12.450Z,12.52
2022-10-13T03:21:48.000Z,14.65
2022-10-13T03:24:23.567Z,10.07
2022-10-13T03:26:50.233Z,13.23
2022-10-13T03:29:17.490Z,10.23
2022-10-13T03:31:44.745Z,16.27
2022-10-13T03:34:13.002Z,10.40
2022-10-13T03:36:39.960Z,12.35
2022-10-13T03:39:09.653Z,18.80
2022-10-13T03:41:36.515Z,15.18
2022-10-13T03:44:04.276Z,9.98
2022-10-13T03:46:31.221Z,12.85
2022-10-13T03:48:57.797Z,10.27
2022-10-13T03:51:25.215Z,11.93
2022-10-13T03:53:57.983Z,15.88
2022-10-13T03:56:26.983Z,10.88
2022-10-13T03:59:11.158Z,13.98
2022-10-13T04:01:37.771Z,10.80
2022-10-13T04:04:11.469Z,12.83
2022-10-13T04:06:38.292Z,13.02
2022-10-13T04:09:05.334Z,11.70
2022-10-13T04:11:41.069Z,11.35
2022-10-13T04:14:07.629Z,11.45
2022-10-13T04:16:34.218Z,16.07
2022-10-13T04:19:13.453Z,13.07
2022-10-13T04:21:51.976Z,15.02
2022-10-13T04:24:24.477Z,11.80
2022-10-13T04:26:51.076Z,11.15
2022-10-13T04:29:17.677Z,14.27
2022-10-13T04:31:44.267Z,13.85
2022-10-13T04:34:11.834Z,11.40
2022-10-13T04:36:38.763Z,17.35
2022-10-13T04:39:05.411Z,12.98
2022-10-13T04:41:34.923Z,14.33
2022-10-13T04:44:01.611Z,11.52
2022-10-13T04:46:43.172Z,16.02
2022-10-13T04:49:12.829Z,12.05
2022-10-13T04:51:48.212Z,15.25
2022-10-13T04:54:14.837Z,13.23
2022-10-13T04:56:43.735Z,13.10
2022-10-13T04:59:10.384Z,13.73
2022-10-13T05:01:37.570Z,20.75
2022-10-13T05:04:04.724Z,11.93
2022-10-13T05:06:34.000Z,12.87
2022-10-13T05:09:00.598Z,12.45
2022-10-13T05:11:29.650Z,13.55
2022-10-13T05:13:57.136Z,16.13
2022-10-13T05:16:24.674Z,13.15
2022-10-13T05:18:54.847Z,18.90
2022-10-13T05:21:25.037Z,11.77
2022-10-13T05:23:52.402Z,13.10
2022-10-13T05:26:20.334Z,14.50
2022-10-13T05:28:47.016Z,15.68
2022-10-13T05:31:18.247Z,12.00
2022-10-13T05:33:46.148Z,12.57
2022-10-13T05:36:15.529Z,11.82
2022-10-13T05:39:05.259Z,16.75
2022-10-13T05:41:31.005Z,21.20
2022-10-13T05:44:04.272Z,12.13
2022-10-13T05:46:31.243Z,11.88
2022-10-13T05:49:01.628Z,17.65
2022-10-13T05:51:32.441Z,15.93
2022-10-13T05:54:10.412Z,15.52
2022-10-13T05:56:42.147Z,20.00
2022-10-13T05:59:15.316Z,16.13
2022-10-13T06:01:43.160Z,16.45
2022-10-13T06:04:23.280Z,11.85
2022-10-13T06:06:50.379Z,14.07
2022-10-13T06:09:17.184Z,13.13
2022-10-13T06:11:46.065Z,16.15
2022-10-13T06:14:12.801Z,12.80
2022-10-13T06:16:39.496Z,11.82
2022-10-13T06:19:18.119Z,15.10
2022-10-13T06:21:50.927Z,13.90
2022-10-13T06:24:22.857Z,17.08
2022-10-13T06:26:49.469Z,12.90
2022-10-13T06:29:17.285Z,15.75
2022-10-13T06:31:43.908Z,18.27
2022-10-13T06:34:11.641Z,12.33
2022-10-13T06:36:38.244Z,13.82
2022-10-13T06:39:04.804Z,13.70
2022-10-13T06:41:40.552Z,14.15
2022-10-13T06:44:07.304Z,15.77
2022-10-13T06:46:33.942Z,15.07
2022-10-13T06:49:00.551Z,15.05
2022-10-13T06:51:30.102Z,18.90
2022-10-13T06:53:56.782Z,21.98
2022-10-13T06:56:30.168Z,17.58
2022-10-13T06:59:05.494Z,23.73
2022-10-13T07:01:32.245Z,17.08
2022-10-13T07:04:03.058Z,18.30
2022-10-13T07:06:41.915Z,22.45
2022-10-13T07:09:14.955Z,18.10
2022-10-13T07:11:44.484Z,19.77
2022-10-13T07:14:13.911Z,26.17
2022-10-13T07:16:43.719Z,25.40
2022-10-13T07:19:22.452Z,19.85
2022-10-13T07:21:49.105Z,19.50
2022-10-13T07:24:21.685Z,16.97
2022-10-13T07:26:48.505Z,22.52
2022-10-13T07:29:15.682Z,19.13
2022-10-13T07:31:46.466Z,18.95
2022-10-13T07:34:25.107Z,19.50
2022-10-13T07:36:59.328Z,19.33
2022-10-13T07:39:29.141Z,18.75
2022-10-13T07:41:58.915Z,21.08
2022-10-13T07:44:37.699Z,19.05
2022-10-13T07:47:04.317Z,26.10
2022-10-13T07:49:43.353Z,19.80
2022-10-13T07:52:19.428Z,18.92
2022-10-13T07:54:49.783Z,18.45
2022-10-13T07:57:16.882Z,20.20
2022-10-13T07:59:51.172Z,18.60
2022-10-13T08:02:33.497Z,18.07
2022-10-13T08:05:03.606Z,19.02
2022-10-13T08:07:30.531Z,26.23
2022-10-13T08:10:00.047Z,16.60
2022-10-13T08:12:29.605Z,25.42
2022-10-13T08:15:06.774Z,17.73
2022-10-13T08:17:35.872Z,19.25
2022-10-13T08:20:11.872Z,15.73
2022-10-13T08:22:38.821Z,24.85
2022-10-13T08:25:11.547Z,15.55
2022-10-13T08:27:51.219Z,16.70
2022-10-13T08:30:19.009Z,16.67
2022-10-13T08:32:45.677Z,16.58
2022-10-13T08:35:21.431Z,17.20
2022-10-13T08:37:48.189Z,18.27
2022-10-13T08:40:19.261Z,15.47
2022-10-13T08:42:46.842Z,16.98
2022-10-13T08:45:40.216Z,14.73
2022-10-13T08:48:15.393Z,17.23
2022-10-13T08:50:59.720Z,16.63
2022-10-13T08:53:52.752Z,16.40
2022-10-13T08:56:24.606Z,16.80
2022-10-13T08:58:53.131Z,17.17
2022-10-13T09:01:27.639Z,17.77
2022-10-13T09:04:15.760Z,18.77
2022-10-13T09:06:52.595Z,16.73
2022-10-13T09:09:20.393Z,22.15
2022-10-13T09:11:49.593Z,19.35
2022-10-13T09:14:27.710Z,14.73
2022-10-13T09:16:56.154Z,21.13
2022-10-13T09:19:31.696Z,16.93
2022-10-13T09:22:33.157Z,22.38
2022-10-13T09:25:08.960Z,20.95
2022-10-13T09:27:44.837Z,21.30
2022-10-13T09:30:38.428Z,17.63
2022-10-13T09:33:11.073Z,17.07
2022-10-13T09:35:46.376Z,16.40
2022-10-13T09:41:00.746Z,23.83
2022-10-13T09:43:31.178Z,16.35
2022-10-13T09:45:59.459Z,16.00
2022-10-13T09:48:33.089Z,16.00
2022-10-13T09:51:02.919Z,15.15
2022-10-13T09:53:40.518Z,17.40
2022-10-13T09:56:36.001Z,14.68
2022-10-13T09:59:26.242Z,15.87
2022-10-13T10:05:14.282Z,12.13
2022-10-13T10:07:40.901Z,13.95
2022-10-13T10:10:32.646Z,14.52
2022-10-13T10:13:05.409Z,11.57
2022-10-13T10:16:13.487Z,17.65
2022-10-13T10:18:58.754Z,13.00
2022-10-13T10:21:49.840Z,15.95
2022-10-13T10:24:22.311Z,11.20
2022-10-13T10:30:01.241Z,10.20
2022-10-13T10:33:05.065Z,16.08
2022-10-13T10:36:06.812Z,9.65
2022-10-13T10:38:43.430Z,11.00
2022-10-13T10:41:28.616Z,10.17
2022-10-13T10:44:29.532Z,11.40
2022-10-13T10:47:06.970Z,12.88
2022-10-13T10:49:37.713Z,10.93
2022-10-13T10:52:08.416Z,12.07
2022-10-13T10:55:03.047Z,12.43
2022-10-13T10:57:37.814Z,12.48
2022-10-13T11:00:13.508Z,10.32
2022-10-13T11:03:40.227Z,10.02
2022-10-13T11:06:15.989Z,10.88
2022-10-13T11:08:47.493Z,10.10
2022-10-13T11:11:33.382Z,12.98
2022-10-13T11:14:07.574Z,13.02
2022-10-13T11:16:38.415Z,17.25
2022-10-13T11:19:08.018Z,12.70
2022-10-13T11:22:02.768Z,16.93
2022-10-13T11:24:41.178Z,14.40
2022-10-13T11:27:10.506Z,19.15
2022-10-13T11:29:46.090Z,17.83
2022-10-13T11:32:49.967Z,14.02
2022-10-13T11:35:26.271Z,12.63
2022-10-13T11:38:13.936Z,12.43
2022-10-13T11:40:43.502Z,13.45
2022-10-13T11:43:25.159Z,14.32
2022-10-13T11:46:22.038Z,12.65
2022-10-13T11:49:06.509Z,12.77
2022-10-13T11:52:04.482Z,14.70
2022-10-13T11:54:34.150Z,11.77
2022-10-13T12:00:19.066Z,11.90
2022-10-13T12:02:50.877Z,16.10
2022-10-13T12:05:23.371Z,11.95
2022-10-13T12:07:57.213Z,12.77
2022-10-13T12:10:32.448Z,10.75
2022-10-13T12:12:59.625Z,13.63
2022-10-13T12:15:43.068Z,12.17
2022-10-13T12:18:36.574Z,16.00
2022-10-13T12:21:10.418Z,12.43
2022-10-13T12:23:38.729Z,11.55
2022-10-13T12:26:20.447Z,13.30
2022-10-13T12:29:11.618Z,12.57
2022-10-13T12:31:44.495Z,12.35
2022-10-13T12:34:16.721Z,16.20
2022-10-13T12:36:46.300Z,12.15
2022-10-13T12:39:15.097Z,18.13
2022-10-13T12:41:45.837Z,12.50
2022-10-13T12:44:20.704Z,11.52
2022-10-13T12:46:53.251Z,12.80
2022-10-13T12:52:09.844Z,15.10
2022-10-13T12:54:47.103Z,11.13
2022-10-13T12:57:43.436Z,19.15
2022-10-13T13:00:19.357Z,12.98
2022-10-13T13:06:10.596Z,10.55
2022-10-13T13:08:37.286Z,12.10
2022-10-13T13:11:21.809Z,10.77
2022-10-13T13:13:48.516Z,11.77
2022-10-13T13:16:25.217Z,13.10
2022-10-13T13:19:02.456Z,13.88
2022-10-13T13:21:29.085Z,14.50
2022-10-13T13:23:55.694Z,12.27
2022-10-13T13:26:45.545Z,12.85
2022-10-13T13:29:21.269Z,15.80
2022-10-13T13:31:48.087Z,13.15
2022-10-13T13:34:23.765Z,14.33
2022-10-13T13:37:04.826Z,10.93
2022-10-13T13:39:31.444Z,12.40
2022-10-13T13:41:58.049Z,17.33
2022-10-13T13:44:24.765Z,12.50
2022-10-13T13:46:57.520Z,11.67
2022-10-13T13:49:30.102Z,11.10
2022-10-13T13:52:02.655Z,13.57
2022-10-13T13:54:40.820Z,12.35
2022-10-13T13:57:07.723Z,19.58
2022-10-13T13:59:43.973Z,14.30
2022-10-13T14:02:18.444Z,12.68
2022-10-13T14:04:46.763Z,13.68
2022-10-13T14:07:13.607Z,14.43
2022-10-13T14:09:40.390Z,12.82
2022-10-13T14:12:10.208Z,13.30
2022-10-13T14:14:39.728Z,15.63
2022-10-13T14:17:06.587Z,15.18
2022-10-13T14:19:36.012Z,14.13
2022-10-13T14:22:05.883Z,13.48
2022-10-13T14:24:37.373Z,15.00
2022-10-13T14:27:04.104Z,13.43
2022-10-13T14:29:44.216Z,15.32
2022-10-13T14:32:11.345Z,13.82
2022-10-13T14:34:43.875Z,12.75
2022-10-13T14:37:13.593Z,13.80
2022-10-13T14:39:40.729Z,20.65
2022-10-13T14:42:17.677Z,13.95
2022-10-13T14:44:56.460Z,13.65
2022-10-13T14:47:23.298Z,14.07
2022-10-13T14:49:50.067Z,18.37
2022-10-13T14:52:16.613Z,15.27
2022-10-13T14:54:45.040Z,18.17
2022-10-13T14:57:12.244Z,14.20
2022-10-13T14:59:38.951Z,14.75
2022-10-13T15:02:17.661Z,16.10
2022-10-13T15:04:44.439Z,14.95
2022-10-13T15:07:17.049Z,14.45
2022-10-13T15:09:52.739Z,16.13
2022-10-13T15:12:20.275Z,14.95
2022-10-13T15:14:47.222Z,14.03
2022-10-13T15:17:19.954Z,19.23
2022-10-13T15:19:55.087Z,14.90
2022-10-13T15:22:30.386Z,13.20
2022-10-13T15:24:57.351Z,18.92
2022-10-13T15:27:26.987Z,17.57
2022-10-13T15:29:53.566Z,14.40
2022-10-13T15:32:27.132Z,13.20
2022-10-13T15:34:53.863Z,15.65
2022-10-13T15:37:20.596Z,14.52
2022-10-13T15:39:56.009Z,14.23
2022-10-13T15:42:24.003Z,13.35
2022-10-13T15:45:08.860Z,13.43
2022-10-13T15:47:37.078Z,11.65
2022-10-13T15:50:04.468Z,10.93
2022-10-13T15:52:34.926Z,10.50
2022-10-13T15:55:02.065Z,14.13
2022-10-13T15:57:30.504Z,10.40
2022-10-13T15:59:57.153Z,11.63
2022-10-13T16:02:24.047Z,10.45
2022-10-13T16:04:51.435Z,8.33
2022-10-13T16:07:18.215Z,8.95
2022-10-13T16:09:45.093Z,10.73
2022-10-13T16:12:11.881Z,11.85
2022-10-13T16:14:44.253Z,14.10
2022-10-13T16:17:12.438Z,8.77
2022-10-13T16:19:41.333Z,6.47
2022-10-13T16:22:18.427Z,7.25
2022-10-13T16:25:00.171Z,13.85
2022-10-13T16:27:26.975Z,6.47
2022-10-13T16:29:53.570Z,5.47
2022-10-13T16:32:20.605Z,5.55
2022-10-13T16:34:47.594Z,11.05
2022-10-13T16:37:14.256Z,9.13
2022-10-13T16:39:43.224Z,6.07
2022-10-13T16:42:12.119Z,10.63
2022-10-13T16:44:45.806Z,6.43
2022-10-13T16:47:17.336Z,7.40
2022-10-13T16:49:44.940Z,6.85
2022-10-13T16:52:11.553Z,6.45
2022-10-13T16:54:38.176Z,7.10
2022-10-13T16:57:04.806Z,6.55
2022-10-13T16:59:33.483Z,4.57
2022-10-13T17:02:01.082Z,4.85
2022-10-13T17:04:27.688Z,5.53
2022-10-13T17:06:54.410Z,6.70
2022-10-13T17:09:21.084Z,8.32
2022-10-13T17:11:47.650Z,4.13
2022-10-13T17:14:14.290Z,3.55
2022-10-13T17:16:40.904Z,10.75
2022-10-13T17:19:07.540Z,7.20
2022-10-13T17:21:34.482Z,4.82
2022-10-13T17:24:01.172Z,4.30
2022-10-13T17:26:27.788Z,6.22
2022-10-13T17:28:55.135Z,7.38
2022-10-13T17:31:24.409Z,3.57
2022-10-13T17:33:51.688Z,6.45
2022-10-13T17:36:24.208Z,6.20
2022-10-13T17:38:52.369Z,8.68
2022-10-13T17:41:22.538Z,5.95
2022-10-13T17:43:50.806Z,5.40
2022-10-13T17:46:42.094Z,5.10
2022-10-13T17:49:12.703Z,5.07
2022-10-13T17:51:43.282Z,6.07
2022-10-13T17:54:16.773Z,4.78
2022-10-13T17:56:47.230Z,9.30
2022-10-13T17:59:16.543Z,7.13
2022-10-13T18:01:43.883Z,11.23
2022-10-13T18:04:15.953Z,6.22
2022-10-13T18:06:43.492Z,6.10
2022-10-13T18:09:13.223Z,9.47
2022-10-13T18:11:44.387Z,12.30
2022-10-13T18:14:15.380Z,6.93
2022-10-13T18:16:42.291Z,7.57
2022-10-13T18:19:08.956Z,9.88
2022-10-13T18:21:35.631Z,8.63
2022-10-13T18:24:03.285Z,8.23
2022-10-13T18:26:33.241Z,7.57
2022-10-13T18:28:59.901Z,8.48
2022-10-13T18:31:31.818Z,9.30
2022-10-13T18:34:00.425Z,11.13
2022-10-13T18:36:29.289Z,15.07
2022-10-13T18:39:01.711Z,11.20
2022-10-13T18:41:28.329Z,12.25
2022-10-13T18:43:55.112Z,9.27
2022-10-13T18:46:21.722Z,11.60
2022-10-13T18:48:48.355Z,10.23
2022-10-13T18:51:17.353Z,9.93
2022-10-13T18:53:45.923Z,12.70
2022-10-13T18:56:15.922Z,10.65
2022-10-13T18:58:42.729Z,10.50
2022-10-13T19:01:12.077Z,13.00
2022-10-13T19:03:40.544Z,10.95
2022-10-13T19:06:09.427Z,12.15
2022-10-13T19:08:36.245Z,11.25
2022-10-13T19:11:11.109Z,13.50
2022-10-13T19:13:38.917Z,11.98
2022-10-13T19:16:06.695Z,17.85
2022-10-13T19:18:35.317Z,12.88
2022-10-13T19:21:03.566Z,13.50
2022-10-13T19:26:30.113Z,16.02
2022-10-13T19:29:08.769Z,23.15
2022-10-13T19:31:37.491Z,12.98
2022-10-13T19:34:04.540Z,14.68
2022-10-13T19:36:36.253Z,13.10
2022-10-13T19:39:11.961Z,12.85
2022-10-13T19:41:39.257Z,16.95
2022-10-13T19:44:05.915Z,17.67
2022-10-13T19:46:42.851Z,14.77
2022-10-13T19:49:17.749Z,15.10
2022-10-13T19:51:45.373Z,17.90
2022-10-13T19:54:15.541Z,17.05
2022-10-13T19:56:49.594Z,14.30
2022-10-13T19:59:18.956Z,13.90
2022-10-13T20:01:47.999Z,18.50
2022-10-13T20:04:17.127Z,14.85
2022-10-13T20:06:53.745Z,14.93
2022-10-13T20:09:20.939Z,14.43
2022-10-13T20:11:49.533Z,13.45
2022-10-13T20:14:22.244Z,15.87
2022-10-13T20:16:51.950Z,13.68
2022-10-13T20:19:21.985Z,13.88
2022-10-13T20:21:48.795Z,14.77
2022-10-13T20:24:18.950Z,16.58
2022-10-13T20:26:45.559Z,15.27
2022-10-13T20:29:14.885Z,14.93
2022-10-13T20:31:42.050Z,14.57
2022-10-13T20:34:10.349Z,18.80
2022-10-13T20:36:39.088Z,15.75
2022-10-13T20:39:06.645Z,15.20
2022-10-13T20:41:33.361Z,15.77
2022-10-13T20:46:56.282Z,16.77
2022-10-13T20:49:22.938Z,13.90
2022-10-13T20:51:58.704Z,14.20
2022-10-13T20:54:25.393Z,14.52
2022-10-13T20:56:55.562Z,19.77
2022-10-13T20:59:25.121Z,14.43
2022-10-13T21:01:57.426Z,19.58
2022-10-13T21:04:33.097Z,24.43
2022-10-13T21:07:00.120Z,20.33
2022-10-13T21:09:26.797Z,17.70
2022-10-13T21:12:01.028Z,22.30
2022-10-13T21:14:30.435Z,19.63
2022-10-13T21:17:00.496Z,23.17
2022-10-13T21:19:30.200Z,15.70
2022-10-13T21:21:59.891Z,14.60
2022-10-13T21:24:32.409Z,18.00
2022-10-13T21:27:01.328Z,14.20
2022-10-13T21:29:27.989Z,19.27
2022-10-13T21:32:14.349Z,16.13
2022-10-13T21:34:40.920Z,13.52
2022-10-13T21:37:12.591Z,14.80
2022-10-13T21:39:39.178Z,20.70
2022-10-13T21:42:05.973Z,14.30
2022-10-13T21:44:32.736Z,13.25
2022-10-13T21:47:02.391Z,11.98
2022-10-13T21:49:38.089Z,11.05
2022-10-13T21:52:04.997Z,13.18
2022-10-13T21:54:59.392Z,11.37
2022-10-13T21:57:29.615Z,11.25
2022-10-13T21:59:56.825Z,14.77
2022-10-13T22:02:23.711Z,10.90
2022-10-13T22:04:50.466Z,16.95
2022-10-13T22:07:19.588Z,17.10
2022-10-13T22:09:46.550Z,14.52
2022-10-13T22:12:28.219Z,14.45
2022-10-13T22:14:55.076Z,15.27
2022-10-13T22:17:30.872Z,14.85
2022-10-13T22:20:03.099Z,14.70
2022-10-13T22:22:39.030Z,11.70
2022-10-13T22:25:09.440Z,20.92
2022-10-13T22:27:41.268Z,11.95
2022-10-13T22:30:16.681Z,11.55
2022-10-13T22:32:50.558Z,18.10
2022-10-13T22:35:17.319Z,15.70
2022-10-13T22:37:55.812Z,15.07
2022-10-13T22:40:22.542Z,16.95
2022-10-13T22:42:49.276Z,15.50
2022-10-13T22:45:21.183Z,20.37
2022-10-13T22:47:51.794Z,15.57
2022-10-13T22:50:30.073Z,15.25
2022-10-13T22:52:57.017Z,16.58
2022-10-13T22:55:39.456Z,17.30
2022-10-13T22:58:06.195Z,15.50
2022-10-13T23:00:41.436Z,14.73
2022-10-13T23:03:08.396Z,19.88
2022-10-13T23:05:42.220Z,20.63
2022-10-13T23:08:09.725Z,22.67
2022-10-13T23:10:45.475Z,18.43
2022-10-13T23:13:16.958Z,17.10
2022-10-13T23:15:51.834Z,21.33
2022-10-13T23:18:18.559Z,20.75
2022-10-13T23:20:45.188Z,28.30
2022-10-13T23:23:11.788Z,22.40
2022-10-13T23:25:49.669Z,22.05
2022-10-13T23:28:16.333Z,21.98
2022-10-13T23:30:42.971Z,26.25
2022-10-13T23:33:09.541Z,25.75
2022-10-13T23:35:42.020Z,31.53
2022-10-13T23:38:13.976Z,22.83
2022-10-13T23:40:40.698Z,29.23
2022-10-13T23:43:13.467Z,20.45
2022-10-13T23:45:49.208Z,21.60
2022-10-13T23:48:18.218Z,20.83
2022-10-13T23:50:44.923Z,19.52
2022-10-13T23:53:11.618Z,23.10
2022-10-13T23:55:41.238Z,21.27
2022-10-13T23:58:16.672Z,23.00
